createdAt,value
2023-04-16T00:00:23.477Z,5.10
2023-04-16T00:02:56.229Z,5.10
2023-04-16T00:05:28.753Z,5.10
2023-04-16T00:08:00.974Z,5.10
2023-04-16T00:10:35.185Z,5.10
2023-04-16T00:13:07.198Z,5.00
2023-04-16T00:15:39.480Z,5.10
2023-04-16T00:18:11.682Z,5.10
2023-04-16T00:20:44.441Z,5.10
2023-04-16T00:23:17.691Z,5.00
2023-04-16T00:25:50.037Z,5.00
2023-04-16T00:28:22.086Z,5.10
2023-04-16T00:30:54.800Z,5.00
2023-04-16T00:33:27.086Z,5.00
2023-04-16T00:35:59.227Z,5.00
2023-04-16T00:38:32.780Z,5.10
2023-04-16T00:41:05.266Z,5.10
2023-04-16T00:43:37.731Z,5.10
2023-04-16T00:46:10.520Z,5.20
2023-04-16T00:48:45.031Z,5.20
2023-04-16T00:51:19.451Z,5.20
2023-04-16T00:53:51.892Z,5.20
2023-04-16T00:56:25.045Z,5.30
2023-04-16T00:58:57.620Z,5.10
2023-04-16T01:01:30.104Z,5.10
2023-04-16T01:04:02.679Z,5.10
2023-04-16T01:06:34.998Z,5.10
2023-04-16T01:09:07.173Z,5.10
2023-04-16T01:11:40.029Z,5.00
2023-04-16T01:14:12.149Z,5.10
2023-04-16T01:16:44.374Z,5.10
2023-04-16T01:19:16.479Z,5.10
2023-04-16T01:21:48.715Z,5.10
2023-04-16T01:24:20.978Z,5.00
2023-04-16T01:26:53.210Z,5.00
2023-04-16T01:29:26.144Z,5.00
2023-04-16T01:32:00.247Z,5.10
2023-04-16T01:34:41.611Z,5.10
2023-04-16T01:37:15.977Z,5.00
2023-04-16T01:39:48.035Z,5.00
2023-04-16T01:42:20.200Z,5.00
2023-04-16T01:44:52.340Z,5.00
2023-04-16T01:47:24.550Z,5.00
2023-04-16T01:49:57.460Z,5.00
2023-04-16T01:52:30.400Z,5.10
2023-04-16T01:55:02.637Z,5.10
2023-04-16T01:57:34.872Z,5.10
2023-04-16T02:00:08.788Z,5.00
2023-04-16T02:02:50.998Z,5.00
2023-04-16T02:05:31.082Z,5.00
2023-04-16T02:08:03.809Z,5.00
2023-04-16T02:10:36.010Z,5.00
2023-04-16T02:13:08.410Z,5.10
2023-04-16T02:15:40.651Z,5.10
2023-04-16T02:18:13.487Z,5.10
2023-04-16T02:20:47.748Z,5.10
2023-04-16T02:23:20.090Z,5.10
2023-04-16T02:25:52.841Z,5.00
2023-04-16T02:28:25.046Z,5.00
2023-04-16T02:30:57.276Z,5.20
2023-04-16T02:33:32.073Z,5.10
2023-04-16T02:36:07.666Z,5.20
2023-04-16T02:38:40.479Z,5.10
2023-04-16T02:41:12.613Z,5.10
2023-04-16T02:43:45.306Z,5.10
2023-04-16T02:46:17.546Z,5.10
2023-04-16T02:48:49.696Z,5.00
2023-04-16T02:51:21.811Z,5.00
2023-04-16T02:53:54.450Z,5.00
2023-04-16T02:56:26.937Z,5.00
2023-04-16T02:58:59.167Z,4.90
2023-04-16T03:01:31.514Z,4.90
2023-04-16T03:04:04.501Z,4.90
2023-04-16T03:06:36.864Z,4.90
2023-04-16T03:09:09.179Z,5.00
2023-04-16T03:11:41.559Z,5.00
2023-04-16T03:14:13.765Z,4.90
2023-04-16T03:16:46.789Z,5.00
2023-04-16T03:19:19.184Z,4.90
2023-04-16T03:21:51.747Z,5.00
2023-04-16T03:24:23.982Z,5.00
2023-04-16T03:26:58.260Z,5.00
2023-04-16T03:29:30.628Z,5.10
2023-04-16T03:32:03.799Z,5.20
2023-04-16T03:34:37.256Z,5.10
2023-04-16T03:37:12.160Z,5.10
2023-04-16T03:39:44.957Z,5.20
2023-04-16T03:42:17.386Z,5.10
2023-04-16T03:44:49.485Z,5.10
2023-04-16T03:47:22.747Z,5.20
2023-04-16T03:49:57.469Z,5.00
2023-04-16T03:52:29.735Z,5.10
2023-04-16T03:55:04.035Z,5.10
2023-04-16T03:57:37.211Z,5.00
2023-04-16T04:00:14.557Z,5.10
2023-04-16T04:02:46.762Z,5.00
2023-04-16T04:05:24.557Z,5.10
2023-04-16T04:07:58.256Z,5.10
2023-04-16T04:10:33.083Z,5.10
2023-04-16T04:13:07.004Z,5.10
2023-04-16T04:15:40.522Z,5.10
2023-04-16T04:18:12.736Z,5.00
2023-04-16T04:20:45.549Z,5.00
2023-04-16T04:23:20.852Z,5.00
2023-04-16T04:25:54.052Z,5.00
2023-04-16T04:28:26.856Z,5.00
2023-04-16T04:31:00.045Z,5.00
2023-04-16T04:33:32.328Z,5.00
2023-04-16T04:36:04.593Z,5.00
2023-04-16T04:38:38.956Z,5.00
2023-04-16T04:41:11.159Z,5.00
2023-04-16T04:43:44.371Z,5.10
2023-04-16T04:46:17.533Z,5.00
2023-04-16T04:48:50.911Z,5.00
2023-04-16T04:51:23.416Z,5.00
2023-04-16T04:53:55.626Z,4.90
2023-04-16T04:56:27.740Z,4.90
2023-04-16T04:59:00.237Z,5.00
2023-04-16T05:01:32.677Z,5.10
2023-04-16T05:04:05.118Z,5.00
2023-04-16T05:06:37.238Z,5.00
2023-04-16T05:09:12.526Z,5.00
2023-04-16T05:11:44.630Z,4.90
2023-04-16T05:14:16.930Z,5.00
2023-04-16T05:16:49.639Z,5.00
2023-04-16T05:19:21.925Z,5.00
2023-04-16T05:21:54.710Z,5.00
2023-04-16T05:24:26.803Z,5.00
2023-04-16T05:26:59.283Z,5.10
2023-04-16T05:29:31.883Z,4.90
2023-04-16T05:32:04.813Z,5.00
2023-04-16T05:34:36.944Z,5.00
2023-04-16T05:37:09.587Z,5.00
2023-04-16T05:39:41.737Z,4.90
2023-04-16T05:42:13.889Z,4.90
2023-04-16T05:44:46.192Z,4.90
2023-04-16T05:47:18.725Z,4.90
2023-04-16T05:49:51.063Z,4.90
2023-04-16T05:52:23.438Z,5.00
2023-04-16T05:54:55.587Z,5.10
2023-04-16T05:57:30.910Z,5.10
2023-04-16T06:00:04.405Z,5.20
2023-04-16T06:02:44.247Z,5.20
2023-04-16T06:05:17.349Z,5.20
2023-04-16T06:07:49.594Z,5.10
2023-04-16T06:10:22.130Z,5.10
2023-04-16T06:12:54.471Z,5.10
2023-04-16T06:15:26.698Z,5.00
2023-04-16T06:18:00.692Z,5.10
2023-04-16T06:20:33.213Z,5.00
2023-04-16T06:23:05.655Z,5.20
2023-04-16T06:25:38.372Z,5.10
2023-04-16T06:28:10.499Z,5.10
2023-04-16T06:30:44.516Z,5.20
2023-04-16T06:33:17.174Z,5.30
2023-04-16T06:35:49.323Z,5.20
2023-04-16T06:38:21.440Z,5.30
2023-04-16T06:40:53.887Z,5.30
2023-04-16T06:43:26.553Z,5.40
2023-04-16T06:45:58.742Z,5.60
2023-04-16T06:48:31.087Z,5.60
2023-04-16T06:51:03.348Z,5.60
2023-04-16T06:53:37.637Z,5.70
2023-04-16T06:56:09.838Z,5.60
2023-04-16T06:58:41.931Z,5.70
2023-04-16T07:01:14.388Z,5.70
2023-04-16T07:03:47.020Z,5.70
2023-04-16T07:06:19.541Z,5.80
2023-04-16T07:08:51.671Z,5.80
2023-04-16T07:11:23.811Z,5.80
2023-04-16T07:13:55.972Z,5.80
2023-04-16T07:16:28.305Z,5.90
2023-04-16T07:19:00.459Z,5.90
2023-04-16T07:21:32.644Z,5.90
2023-04-16T07:24:05.561Z,5.90
2023-04-16T07:26:38.149Z,5.90
2023-04-16T07:29:10.975Z,5.90
2023-04-16T07:31:43.567Z,6.00
2023-04-16T07:34:16.365Z,6.00
2023-04-16T07:36:48.587Z,6.10
2023-04-16T07:39:20.921Z,6.10
2023-04-16T07:41:53.163Z,6.10
2023-04-16T07:44:25.375Z,6.10
2023-04-16T07:46:57.624Z,6.10
2023-04-16T07:49:29.825Z,6.10
2023-04-16T07:52:02.568Z,6.20
2023-04-16T07:54:34.676Z,6.20
2023-04-16T07:57:07.075Z,6.10
2023-04-16T07:59:39.232Z,6.20
2023-04-16T08:02:17.115Z,6.20
2023-04-16T08:04:49.653Z,6.20
2023-04-16T08:07:22.237Z,6.30
2023-04-16T08:09:54.921Z,6.20
2023-04-16T08:12:27.315Z,6.30
2023-04-16T08:14:59.589Z,6.30
2023-04-16T08:17:33.357Z,6.40
2023-04-16T08:20:06.862Z,6.40
2023-04-16T08:22:39.065Z,6.30
2023-04-16T08:25:11.428Z,6.50
2023-04-16T08:27:43.622Z,6.60
2023-04-16T08:30:16.919Z,6.60
2023-04-16T08:32:50.313Z,6.60
2023-04-16T08:35:23.312Z,6.60
2023-04-16T08:37:56.222Z,6.70
2023-04-16T08:40:29.501Z,6.80
2023-04-16T08:43:04.982Z,6.80
2023-04-16T08:45:38.447Z,6.90
2023-04-16T08:48:12.754Z,6.90
2023-04-16T08:50:47.043Z,6.90
2023-04-16T08:53:23.163Z,6.90
2023-04-16T08:55:59.961Z,7.10
2023-04-16T08:58:35.754Z,7.20
2023-04-16T09:01:10.032Z,7.20
2023-04-16T09:03:42.772Z,7.30
2023-04-16T09:06:20.150Z,7.40
2023-04-16T09:08:54.636Z,7.40
2023-04-16T09:11:27.737Z,7.50
2023-04-16T09:14:02.080Z,7.50
2023-04-16T09:16:34.869Z,7.60
2023-04-16T09:19:07.882Z,7.80
2023-04-16T09:21:42.525Z,7.90
2023-04-16T09:24:15.433Z,8.00
2023-04-16T09:26:53.082Z,7.90
2023-04-16T09:29:40.756Z,7.80
2023-04-16T09:32:13.239Z,7.90
2023-04-16T09:35:02.280Z,8.00
2023-04-16T09:37:34.537Z,8.20
2023-04-16T09:40:08.486Z,8.20
2023-04-16T09:42:40.830Z,8.30
2023-04-16T09:45:13.552Z,8.40
2023-04-16T09:47:46.766Z,8.40
2023-04-16T09:50:20.248Z,8.30
2023-04-16T09:52:52.806Z,8.40
2023-04-16T09:55:27.965Z,8.40
2023-04-16T09:58:01.376Z,8.40
2023-04-16T10:00:33.828Z,8.40
2023-04-16T10:03:07.562Z,8.40
2023-04-16T10:05:40.107Z,8.40
2023-04-16T10:08:13.685Z,8.20
2023-04-16T10:10:46.100Z,8.40
2023-04-16T10:13:19.366Z,8.50
2023-04-16T10:15:52.032Z,8.60
2023-04-16T10:18:24.837Z,8.70
2023-04-16T10:20:58.087Z,8.80
2023-04-16T10:23:31.008Z,8.90
2023-04-16T10:26:03.448Z,8.90
2023-04-16T10:28:36.759Z,8.90
2023-04-16T10:31:10.408Z,8.80
2023-04-16T10:33:44.423Z,8.70
2023-04-16T10:36:23.283Z,8.60
2023-04-16T10:39:00.272Z,8.60
2023-04-16T10:41:34.010Z,8.50
2023-04-16T10:44:10.762Z,8.60
2023-04-16T10:46:51.126Z,8.60
2023-04-16T10:49:24.034Z,8.70
2023-04-16T10:52:02.415Z,8.70
2023-04-16T10:54:36.384Z,8.70
2023-04-16T10:57:12.438Z,8.60
2023-04-16T10:59:46.249Z,8.60
2023-04-16T11:02:19.864Z,8.70
2023-04-16T11:04:52.327Z,8.70
2023-04-16T11:07:35.385Z,8.80
2023-04-16T11:10:13.024Z,8.70
2023-04-16T11:12:47.934Z,8.70
2023-04-16T11:15:20.408Z,8.70
2023-04-16T11:17:53.042Z,8.80
2023-04-16T11:20:27.288Z,8.80
2023-04-16T11:23:00.009Z,9.00
2023-04-16T11:25:34.535Z,9.20
2023-04-16T11:28:07.231Z,9.40
2023-04-16T11:30:40.894Z,9.50
2023-04-16T11:33:13.675Z,9.50
2023-04-16T11:35:56.262Z,9.40
2023-04-16T11:38:41.233Z,9.30
2023-04-16T11:41:20.206Z,9.20
2023-04-16T11:43:52.795Z,9.10
2023-04-16T11:46:38.885Z,9.00
2023-04-16T11:49:11.487Z,8.90
2023-04-16T11:51:47.372Z,8.80
2023-04-16T11:54:20.995Z,8.80
2023-04-16T11:56:53.848Z,8.80
2023-04-16T11:59:27.295Z,8.80
2023-04-16T12:01:59.584Z,8.70
2023-04-16T12:04:34.846Z,8.80
2023-04-16T12:07:14.410Z,8.90
2023-04-16T12:09:46.791Z,8.90
2023-04-16T12:12:32.664Z,9.00
2023-04-16T12:15:06.162Z,9.10
2023-04-16T12:17:39.139Z,9.00
2023-04-16T12:20:15.653Z,9.00
2023-04-16T12:22:49.929Z,9.00
2023-04-16T12:25:24.999Z,8.90
2023-04-16T12:27:59.217Z,8.90
2023-04-16T12:30:31.530Z,8.90
2023-04-16T12:33:17.853Z,9.00
2023-04-16T12:35:51.116Z,9.00
2023-04-16T12:38:24.658Z,9.00
2023-04-16T12:40:58.615Z,8.80
2023-04-16T12:43:31.242Z,8.80
2023-04-16T12:46:04.464Z,8.90
2023-04-16T12:48:36.910Z,9.00
2023-04-16T12:51:09.300Z,8.90
2023-04-16T12:53:42.161Z,8.90
2023-04-16T12:56:14.378Z,8.90
2023-04-16T12:58:47.010Z,9.00
2023-04-16T13:01:20.371Z,8.90
2023-04-16T13:03:53.018Z,8.80
2023-04-16T13:06:25.403Z,8.80
2023-04-16T13:08:57.730Z,8.80
2023-04-16T13:11:30.380Z,8.90
2023-04-16T13:14:02.848Z,8.90
2023-04-16T13:16:35.681Z,9.00
2023-04-16T13:19:07.917Z,8.90
2023-04-16T13:21:40.893Z,8.90
2023-04-16T13:24:13.415Z,8.90
2023-04-16T13:26:45.878Z,8.90
2023-04-16T13:29:18.609Z,8.70
2023-04-16T13:31:51.380Z,8.70
2023-04-16T13:34:24.173Z,8.70
2023-04-16T13:36:56.573Z,8.50
2023-04-16T13:39:28.716Z,8.60
2023-04-16T13:42:01.237Z,8.60
2023-04-16T13:44:33.368Z,8.60
2023-04-16T13:47:05.872Z,8.60
2023-04-16T13:49:38.199Z,8.60
2023-04-16T13:52:10.342Z,8.60
2023-04-16T13:54:42.977Z,8.60
2023-04-16T13:57:24.913Z,8.60
2023-04-16T13:59:57.244Z,8.60
2023-04-16T14:02:29.638Z,8.50
2023-04-16T14:05:02.013Z,8.50
2023-04-16T14:07:34.228Z,8.50
2023-04-16T14:10:07.937Z,8.50
2023-04-16T14:12:40.315Z,8.50
2023-04-16T14:15:15.077Z,8.50
2023-04-16T14:17:48.093Z,8.60
2023-04-16T14:20:20.451Z,8.60
2023-04-16T14:22:52.585Z,8.60
2023-04-16T14:25:25.281Z,8.60
2023-04-16T14:27:59.009Z,8.60
2023-04-16T14:30:31.446Z,8.60
2023-04-16T14:33:06.717Z,8.60
2023-04-16T14:35:39.149Z,8.70
2023-04-16T14:38:11.896Z,8.70
2023-04-16T14:40:44.500Z,8.70
2023-04-16T14:43:16.862Z,8.70
2023-04-16T14:45:49.229Z,8.70
2023-04-16T14:48:22.282Z,8.60
2023-04-16T14:50:54.623Z,8.60
2023-04-16T14:53:27.378Z,8.60
2023-04-16T14:55:59.651Z,8.60
2023-04-16T14:58:32.432Z,8.50
2023-04-16T15:01:04.993Z,8.60
2023-04-16T15:03:37.612Z,8.60
2023-04-16T15:06:11.498Z,8.60
2023-04-16T15:08:43.884Z,8.60
2023-04-16T15:11:16.207Z,8.60
2023-04-16T15:13:48.449Z,8.50
2023-04-16T15:16:21.027Z,8.60
2023-04-16T15:18:53.591Z,8.40
2023-04-16T15:21:28.168Z,8.40
2023-04-16T15:24:00.266Z,8.30
2023-04-16T15:26:32.433Z,8.40
2023-04-16T15:29:04.808Z,8.40
2023-04-16T15:31:37.067Z,8.50
2023-04-16T15:34:09.625Z,8.50
2023-04-16T15:36:43.140Z,8.50
2023-04-16T15:39:15.557Z,8.40
2023-04-16T15:42:00.664Z,8.30
2023-04-16T15:44:34.460Z,8.40
2023-04-16T15:47:08.227Z,8.30
2023-04-16T15:49:41.339Z,8.20
2023-04-16T15:52:14.427Z,8.30
2023-04-16T15:54:46.780Z,8.40
2023-04-16T15:57:18.926Z,8.20
2023-04-16T16:00:06.017Z,8.20
2023-04-16T16:02:40.425Z,8.30
2023-04-16T16:05:14.487Z,8.30
2023-04-16T16:07:46.919Z,8.20
2023-04-16T16:10:20.897Z,8.20
2023-04-16T16:12:53.218Z,8.20
2023-04-16T16:15:25.956Z,8.10
2023-04-16T16:17:58.822Z,8.20
2023-04-16T16:20:31.069Z,8.20
2023-04-16T16:23:03.713Z,8.10
2023-04-16T16:25:36.424Z,8.00
2023-04-16T16:28:08.615Z,8.10
2023-04-16T16:30:41.019Z,8.10
2023-04-16T16:33:13.938Z,8.10
2023-04-16T16:35:46.702Z,8.20
2023-04-16T16:38:19.012Z,8.00
2023-04-16T16:40:51.318Z,8.10
2023-04-16T16:43:24.266Z,8.00
2023-04-16T16:45:59.310Z,8.00
2023-04-16T16:48:31.493Z,8.00
2023-04-16T16:51:04.287Z,8.00
2023-04-16T16:53:36.539Z,7.90
2023-04-16T16:56:08.848Z,7.80
2023-04-16T16:58:41.890Z,7.80
2023-04-16T17:01:14.241Z,7.80
2023-04-16T17:03:46.662Z,7.80
2023-04-16T17:06:20.810Z,7.70
2023-04-16T17:08:53.752Z,7.80
2023-04-16T17:11:27.486Z,7.80
2023-04-16T17:13:59.779Z,7.70
2023-04-16T17:16:32.078Z,7.70
2023-04-16T17:19:04.394Z,7.70
2023-04-16T17:21:37.348Z,7.70
2023-04-16T17:24:09.794Z,7.60
2023-04-16T17:26:42.320Z,7.60
2023-04-16T17:29:14.573Z,7.60
2023-04-16T17:31:47.170Z,7.60
2023-04-16T17:34:21.979Z,7.50
2023-04-16T17:36:54.255Z,7.40
2023-04-16T17:39:26.505Z,7.40
2023-04-16T17:42:01.792Z,7.40
2023-04-16T17:44:34.057Z,7.40
2023-04-16T17:47:06.462Z,7.30
2023-04-16T17:49:38.703Z,7.20
2023-04-16T17:52:11.045Z,7.20
2023-04-16T17:54:43.372Z,7.30
2023-04-16T17:57:15.859Z,7.20
2023-04-16T17:59:48.185Z,7.20
2023-04-16T18:02:21.086Z,7.10
2023-04-16T18:04:53.752Z,7.10
2023-04-16T18:07:26.643Z,7.10
2023-04-16T18:09:58.787Z,7.10
2023-04-16T18:12:31.178Z,7.10
2023-04-16T18:15:03.805Z,7.00
2023-04-16T18:17:36.240Z,7.00
2023-04-16T18:20:11.861Z,7.10
2023-04-16T18:22:44.262Z,7.10
2023-04-16T18:25:16.613Z,7.10
2023-04-16T18:27:48.766Z,7.00
2023-04-16T18:30:26.417Z,7.00
2023-04-16T18:33:25.452Z,7.10
2023-04-16T18:35:51.891Z,7.10
2023-04-16T18:38:24.244Z,7.00
2023-04-16T18:40:57.116Z,7.10
2023-04-16T18:43:29.417Z,7.00
2023-04-16T18:46:01.660Z,7.10
2023-04-16T18:48:33.990Z,7.10
2023-04-16T18:51:06.980Z,7.00
2023-04-16T18:53:39.519Z,7.00
2023-04-16T18:56:11.938Z,7.00
2023-04-16T18:58:44.181Z,7.00
2023-04-16T19:01:18.069Z,7.00
2023-04-16T19:03:50.571Z,7.00
2023-04-16T19:06:22.924Z,7.00
2023-04-16T19:08:55.147Z,7.00
2023-04-16T19:11:27.270Z,6.90
2023-04-16T19:14:02.221Z,6.90
2023-04-16T19:16:35.775Z,7.00
2023-04-16T19:19:07.933Z,7.00
2023-04-16T19:21:40.077Z,7.00
2023-04-16T19:24:12.189Z,7.00
2023-04-16T19:26:44.255Z,7.00
2023-04-16T19:29:18.176Z,7.00
2023-04-16T19:31:50.524Z,7.00
2023-04-16T19:34:22.731Z,7.00
2023-04-16T19:36:55.422Z,7.00
2023-04-16T19:39:31.782Z,6.90
2023-04-16T19:42:04.565Z,7.00
2023-04-16T19:44:36.997Z,7.00
2023-04-16T19:47:09.792Z,6.90
2023-04-16T19:49:44.091Z,6.80
2023-04-16T19:52:16.888Z,6.80
2023-04-16T19:54:49.093Z,6.80
2023-04-16T19:57:21.210Z,6.80
2023-04-16T19:59:55.089Z,6.90
2023-04-16T20:02:28.363Z,6.90
2023-04-16T20:05:01.872Z,6.90
2023-04-16T20:07:34.105Z,6.80
2023-04-16T20:10:07.056Z,6.80
2023-04-16T20:12:39.249Z,6.80
2023-04-16T20:15:11.726Z,6.80
2023-04-16T20:17:44.283Z,6.70
2023-04-16T20:20:16.581Z,6.70
2023-04-16T20:22:48.773Z,6.60
2023-04-16T20:25:21.834Z,6.60
2023-04-16T20:27:54.250Z,6.50
2023-04-16T20:30:31.095Z,6.50
2023-04-16T20:33:03.296Z,6.50
2023-04-16T20:35:35.579Z,6.60
2023-04-16T20:38:08.437Z,6.50
2023-04-16T20:40:40.638Z,6.50
2023-04-16T20:43:14.446Z,6.40
2023-04-16T20:45:46.864Z,6.40
2023-04-16T20:48:18.963Z,6.30
2023-04-16T20:50:51.318Z,6.30
2023-04-16T20:53:23.617Z,6.30
2023-04-16T20:55:56.032Z,6.40
2023-04-16T20:58:28.497Z,6.40
2023-04-16T21:01:01.008Z,6.30
2023-04-16T21:03:33.886Z,6.30
2023-04-16T21:06:06.383Z,6.20
2023-04-16T21:08:38.447Z,6.10
2023-04-16T21:11:10.552Z,6.10
2023-04-16T21:13:42.917Z,6.10
2023-04-16T21:16:15.105Z,6.10
2023-04-16T21:18:47.401Z,6.00
2023-04-16T21:21:20.316Z,6.00
2023-04-16T21:23:52.376Z,6.00
2023-04-16T21:26:24.533Z,5.90
2023-04-16T21:28:57.250Z,5.90
2023-04-16T21:31:29.820Z,5.80
2023-04-16T21:34:02.055Z,5.80
2023-04-16T21:36:35.236Z,5.80
2023-04-16T21:39:07.936Z,5.90
2023-04-16T21:41:40.186Z,5.90
2023-04-16T21:44:12.368Z,5.80
2023-04-16T21:46:44.513Z,5.80
2023-04-16T21:49:16.828Z,5.70
2023-04-16T21:51:50.402Z,5.70
2023-04-16T21:54:23.025Z,5.70
2023-04-16T21:56:55.297Z,5.70
2023-04-16T21:59:27.550Z,5.60
2023-04-16T22:01:59.691Z,5.70
2023-04-16T22:04:38.835Z,5.70
2023-04-16T22:07:12.143Z,5.70
2023-04-16T22:09:44.272Z,5.60
2023-04-16T22:12:16.600Z,5.50
2023-04-16T22:14:59.736Z,5.60
2023-04-16T22:17:35.165Z,5.60
2023-04-16T22:20:14.786Z,5.60
2023-04-16T22:22:47.267Z,5.60
2023-04-16T22:25:19.324Z,5.60
2023-04-16T22:27:52.050Z,5.70
2023-04-16T22:30:24.111Z,5.70
2023-04-16T22:32:56.819Z,5.70
2023-04-16T22:35:29.005Z,5.80
2023-04-16T22:38:01.621Z,5.80
2023-04-16T22:40:33.857Z,5.80
2023-04-16T22:43:06.332Z,5.80
2023-04-16T22:45:38.445Z,5.80
2023-04-16T22:48:10.913Z,5.80
2023-04-16T22:50:48.672Z,5.80
2023-04-16T22:53:21.543Z,5.80
2023-04-16T22:55:54.331Z,5.80
2023-04-16T22:58:26.664Z,5.80
2023-04-16T23:01:02.110Z,5.80
2023-04-16T23:03:34.384Z,5.70
2023-04-16T23:06:06.980Z,5.70
2023-04-16T23:08:39.146Z,5.60
2023-04-16T23:11:12.036Z,5.60
2023-04-16T23:13:44.156Z,5.60
2023-04-16T23:16:16.696Z,5.60
2023-04-16T23:18:48.924Z,5.50
2023-04-16T23:21:21.110Z,5.40
2023-04-16T23:23:53.126Z,5.50
2023-04-16T23:26:25.623Z,5.40
2023-04-16T23:28:57.764Z,5.50
2023-04-16T23:31:30.383Z,5.50
2023-04-16T23:34:02.604Z,5.30
2023-04-16T23:36:34.882Z,5.30
2023-04-16T23:39:06.997Z,5.30
2023-04-16T23:41:39.403Z,5.30
2023-04-16T23:44:11.747Z,5.30
2023-04-16T23:46:43.877Z,5.30
2023-04-16T23:49:16.451Z,5.30
2023-04-16T23:51:49.103Z,5.30
2023-04-16T23:54:21.914Z,5.30
2023-04-16T23:56:54.065Z,5.40
2023-04-16T23:59:26.456Z,5.30
